Observation data for Paducah on 11/21/2019      Previous  Date       Current Mesonet Observations  Soil Data  Daily Summary Page  Observations in Plain Language
KPAD 210600Z 22013KT 17/15 A2988 RMK A01 T01660145  RH  091%=      5-min Rain = 0
KPAD 210605Z 23011KT 17/14 A2989 RMK A01 T01660144  RH  091%=      5-min Rain = 0
KPAD 210610Z 23013KT 17/14 A2989 RMK A01 T01660144  RH  091%=      5-min Rain = 0
KPAD 210615Z 23013KT 17/14 A2989 RMK A01 T01670144  RH  090%=      5-min Rain = 0
KPAD 210620Z 23013KT 17/14 A2989 RMK A01 T01670144  RH  090%=      5-min Rain = 0
KPAD 210625Z 23013KT 17/14 A2988 RMK A01 T01670144  RH  090%=      5-min Rain = 0
KPAD 210630Z 23014KT 17/14 A2988 RMK A01 T01670144  RH  090%=      5-min Rain = 0
KPAD 210635Z 24013KT 17/14 A2988 RMK A01 T01660143  RH  090%=      5-min Rain = 0
KPAD 210640Z 24015G20KT 17/14 A2988 RMK A01 T01660143  RH  090%=      5-min Rain = 0
KPAD 210645Z 24014KT 17/14 A2988 RMK A01 T01660143  RH  090%=      5-min Rain = 0
KPAD 210650Z 24015G20KT 17/14 A2988 RMK A01 T01660143  RH  090%=      5-min Rain = 0
KPAD 210655Z 23015G20KT 17/14 A2988 RMK A01 T01670144  RH  090%=      5-min Rain = 0
KPAD 210700Z 23014G19KT 17/14 A2988 RMK A01 T01660143  RH  090%=      5-min Rain = 0
KPAD 210705Z 23014G19KT 17/14 A2988 RMK A01 T01660144  RH  090%=      5-min Rain = 0
KPAD 210710Z 23014KT 17/14 A2988 RMK A01 T01670144  RH  090%=      5-min Rain = 0
KPAD 210715Z 23013KT 17/14 A2988 RMK A01 T01660144  RH  090%=      5-min Rain = 0
KPAD 210720Z 23013G18KT 17/14 A2988 RMK A01 T01660144  RH  090%=      5-min Rain = 0
KPAD 210725Z 23013KT 17/14 A2988 RMK A01 T01660144  RH  090%=      5-min Rain = 0
KPAD 210730Z 23013KT 17/14 A2988 RMK A01 T01650144  RH  091%=      5-min Rain = 0
KPAD 210735Z 23012KT 17/14 A2989 RMK A01 T01650143  RH  091%=      5-min Rain = 0
KPAD 210740Z 23012G17KT 16/14 A2988 RMK A01 T01640142  RH  091%=      5-min Rain = 0
KPAD 210745Z 23013KT 16/14 A2988 RMK A01 T01630142  RH  091%=      5-min Rain = 0
KPAD 210750Z 23013KT 16/14 A2988 RMK A01 T01630142  RH  091%=      5-min Rain = 0
KPAD 210755Z 23013KT 16/14 A2988 RMK A01 T01620142  RH  092%=      5-min Rain = 0
KPAD 210800Z 23012G17KT 16/14 A2988 RMK A01 T01620142  RH  092%=      5-min Rain = 0
KPAD 210805Z 23012KT 16/14 A2988 RMK A01 T01610141  RH  092%=      5-min Rain = 0
KPAD 210810Z 23013KT 16/14 A2988 RMK A01 T01610141  RH  092%=      5-min Rain = 0
KPAD 210815Z 24013KT 16/14 A2988 RMK A01 T01610141  RH  092%=      5-min Rain = 0
KPAD 210820Z 24012KT 16/14 A2988 RMK A01 T01600141  RH  092%=      5-min Rain = 0
KPAD 210825Z 24011KT 16/14 A2988 RMK A01 T01600140  RH  092%=      5-min Rain = 0
KPAD 210830Z 24012G17KT 16/14 A2988 RMK A01 T01600141  RH  092%=      5-min Rain = 0
KPAD 210835Z 24011KT 16/14 A2988 RMK A01 T01610141  RH  092%=      5-min Rain = 0
KPAD 210840Z 24011KT 16/14 A2988 RMK A01 T01600140  RH  092%=      5-min Rain = 0
KPAD 210845Z 24011KT 16/14 A2988 RMK A01 T01590140  RH  092%=      5-min Rain = 0
KPAD 210850Z 25011KT 16/14 A2988 RMK A01 T01600140  RH  092%=      5-min Rain = 0
KPAD 210855Z 25011KT 16/14 A2988 RMK A01 T01590140  RH  092%=      5-min Rain = 0
KPAD 210900Z 25011KT 16/14 A2988 RMK A01 T01590140  RH  092%=      5-min Rain = 0
KPAD 210905Z 25011KT 16/14 A2988 RMK A01 T01580139  RH  092%=      5-min Rain = 0
KPAD 210910Z 25011KT 16/14 A2988 RMK A01 T01580139  RH  092%=      5-min Rain = 0
KPAD 210915Z 25011KT 16/14 A2988 RMK A01 T01580139  RH  092%=      5-min Rain = 0
KPAD 210920Z 25012G17KT 16/14 A2988 RMK A01 T01590140  RH  092%=      5-min Rain = 0
KPAD 210925Z 25011KT 16/14 A2988 RMK A01 T01590139  RH  092%=      5-min Rain = 0
KPAD 210930Z 26011KT 16/14 A2988 RMK A01 T01580138  RH  092%=      5-min Rain = 0
KPAD 210935Z 26011KT 16/14 A2988 RMK A01 T01570137  RH  092%=      5-min Rain = 0
KPAD 210940Z 26010KT 16/14 A2988 RMK A01 T01570137  RH  092%=      5-min Rain = 0
KPAD 210945Z 26010KT 16/14 A2988 RMK A01 T01550136  RH  092%=      5-min Rain = 0
KPAD 210950Z 26010KT 15/14 A2989 RMK A01 T01540136  RH  092%=      5-min Rain = 0
KPAD 210955Z 26010KT 15/14 A2989 RMK A01 T01540135  RH  092%=      5-min Rain = 0
KPAD 211000Z 27009KT 15/14 A2989 RMK A01 T01530135  RH  092%=      5-min Rain = 0
KPAD 211005Z 26009KT 15/13 A2989 RMK A01 T01500132  RH  093%=      5-min Rain = 0
KPAD 211010Z 26010KT 15/13 A2989 RMK A01 T01490132  RH  093%=      5-min Rain = 0
KPAD 211015Z 26010KT 15/13 A2989 RMK A01 T01500133  RH  094%=      5-min Rain = 0
KPAD 211020Z 24006KT 15/13 A299 RMK A01 T01490133  RH  093%=      5-min Rain = 0
KPAD 211025Z 26004KT 15/13 A299 RMK A01 T01460129  RH  093%=      5-min Rain = 0
KPAD 211030Z 28006KT 15/13 A299 RMK A01 T01450129  RH  094%=      5-min Rain = 0
KPAD 211035Z 27007KT 15/13 A299 RMK A01 T01460130  RH  094%=      5-min Rain = 0
KPAD 211040Z 29005KT 14/13 A299 RMK A01 T01440128  RH  094%=      5-min Rain = 0
KPAD 211045Z 31005KT 14/13 A2991 RMK A01 T01410126  RH  094%=      5-min Rain = 0
KPAD 211050Z 31006KT 14/13 A2991 RMK A01 T01390125  RH  094%=      5-min Rain = 0
KPAD 211055Z 32007KT 14/13 A2991 RMK A01 T01390125  RH  095%=      5-min Rain = 0
KPAD 211100Z 36009KT 14/12 A2992 RMK A01 T01370123  RH  095%=      5-min Rain = 0
KPAD 211105Z 35007G12KT 14/13 A2993 RMK A01 T01380125  RH  096%=      5-min Rain = 0
KPAD 211110Z 35008KT 14/13 A2993 RMK A01 T01390126  RH  096%=      5-min Rain = 0
KPAD 211115Z 36009KT 14/12 A2994 RMK A01 T01370124  RH  095%=      5-min Rain = 0
KPAD 211120Z 36010KT 14/12 A2994 RMK A01 T01360123  RH  095%=      5-min Rain = 0
KPAD 211125Z 35013KT 13/12 A2994 RMK A01 T01330119  RH  095%=      5-min Rain = 0
KPAD 211130Z 36013KT 13/11 A2994 RMK A01 T01280113  RH  094%=      5-min Rain = 0
KPAD 211135Z 01012KT 12/11 A2995 RMK A01 T01220105  RH  093%=      5-min Rain = 0
KPAD 211140Z 02012KT 11/09 A2996 RMK A01 T01090091  RH  091%=      5-min Rain = 0
KPAD 211145Z 01012KT 10/09 A2996 RMK A01 T01030085  RH  091%=      5-min Rain = 0
KPAD 211150Z 00010KT 10/08 A2996 RMK A01 T01010083  RH  091%=      5-min Rain = 0
KPAD 211155Z 36013KT 10/08 A2996 RMK A01 T00960076  RH  089%=      5-min Rain = 0
KPAD 211200Z 35015KT 09/07 A2997 RMK A01 T00920070  RH  088%=      5-min Rain = 0
KPAD 211205Z 36017G22KT 09/06 A2996 RMK A01 T00900064  RH  086%=      5-min Rain = 0
KPAD 211210Z 35016G21KT 09/06 A2997 RMK A01 T00890061  RH  085%=      5-min Rain = 0
KPAD 211215Z 35016G21KT 09/06 A2997 RMK A01 T00880059  RH  084%=      5-min Rain = 0
KPAD 211220Z 35014KT 09/06 A2998 RMK A01 T00870058  RH  084%=      5-min Rain = 0
KPAD 211225Z 35015KT 09/06 A2998 RMK A01 T00860056  RH  084%=      5-min Rain = 0
KPAD 211230Z 35016KT 09/05 A2999 RMK A01 T00850054  RH  083%=      5-min Rain = 0
KPAD 211235Z 35016G21KT 08/05 A2999 RMK A01 T00840053  RH  083%=      5-min Rain = 0
KPAD 211240Z 36015KT 08/05 A2999 RMK A01 T00830052  RH  083%=      5-min Rain = 0
KPAD 211245Z 35014G20KT 08/05 A2999 RMK A01 T00820051  RH  083%=      5-min Rain = 0
KPAD 211250Z 36015KT 08/05 A30 RMK A01 T00810050  RH  083%=      5-min Rain = 0
KPAD 211255Z 36014KT 08/05 A30 RMK A01 T00800049  RH  083%=      5-min Rain = 0
KPAD 211300Z 36012G17KT 08/05 A30 RMK A01 T00800049  RH  083%=      5-min Rain = 0
KPAD 211305Z 36013KT 08/05 A3001 RMK A01 T00790049  RH  083%=      5-min Rain = 0
KPAD 211310Z 36012KT 08/05 A3001 RMK A01 T00790049  RH  083%=      5-min Rain = 0
KPAD 211315Z 35013G18KT 08/05 A3001 RMK A01 T00780048  RH  083%=      5-min Rain = 0
KPAD 211320Z 35016G21KT 08/05 A3001 RMK A01 T00760045  RH  082%=      5-min Rain = 0
KPAD 211325Z 36016G21KT 08/04 A3001 RMK A01 T00750043  RH  082%=      5-min Rain = 0
KPAD 211330Z 35017KT 07/04 A3001 RMK A01 T00740043  RH  082%=      5-min Rain = 0
KPAD 211335Z 35017G22KT 07/04 A3001 RMK A01 T00730042  RH  082%=      5-min Rain = 0
KPAD 211340Z 35016G21KT 07/04 A3001 RMK A01 T00730042  RH  082%=      5-min Rain = 0
KPAD 211345Z 35016G21KT 07/04 A3001 RMK A01 T00720041  RH  082%=      5-min Rain = 0
KPAD 211350Z 35016KT 07/04 A3001 RMK A01 T00720041  RH  082%=      5-min Rain = 0
KPAD 211355Z 35015G20KT 07/04 A3001 RMK A01 T00720041  RH  082%=      5-min Rain = 0
KPAD 211400Z 36014G20KT 07/04 A3002 RMK A01 T00710041  RH  082%=      5-min Rain = 0
KPAD 211405Z 35015G20KT 07/04 A3002 RMK A01 T00710040  RH  082%=      5-min Rain = 0
KPAD 211410Z 36014KT 07/04 A3002 RMK A01 T00700040  RH  083%=      5-min Rain = 0
KPAD 211415Z 36015KT 07/04 A3002 RMK A01 T00690039  RH  083%=      5-min Rain = 0
KPAD 211420Z 01015G22KT 07/04 A3003 RMK A01 T00690038  RH  082%=      5-min Rain = 0
KPAD 211425Z 00015G20KT 07/04 A3003 RMK A01 T00670035  RH  081%=      5-min Rain = 0
KPAD 211430Z 00016G21KT 07/03 A3003 RMK A01 T00660034  RH  081%=      5-min Rain = 0
KPAD 211435Z 00017G22KT 07/03 A3004 RMK A01 T00660033  RH  081%=      5-min Rain = 0
KPAD 211440Z 01016G21KT 07/03 A3004 RMK A01 T00660033  RH  081%=      5-min Rain = 0
KPAD 211445Z 01015KT 07/03 A3004 RMK A01 T00650032  RH  081%=      5-min Rain = 0
KPAD 211450Z 01015G20KT 07/03 A3004 RMK A01 T00650032  RH  081%=      5-min Rain = 0
KPAD 211455Z 01017G22KT 06/03 A3004 RMK A01 T00640031  RH  081%=      5-min Rain = 0
KPAD 211500Z 00017G22KT 06/03 A3004 RMK A01 T00640031  RH  081%=      5-min Rain = 0
KPAD 211505Z 01016G21KT 06/03 A3004 RMK A01 T00640031  RH  081%=      5-min Rain = 0
KPAD 211510Z 01016G21KT 06/03 A3004 RMK A01 T00640031  RH  081%=      5-min Rain = 0
KPAD 211515Z 01014G19KT 06/03 A3005 RMK A01 T00640031  RH  081%=      5-min Rain = 0
KPAD 211520Z 01014KT 06/03 A3005 RMK A01 T00640031  RH  081%=      5-min Rain = 0
KPAD 211525Z 01014G19KT 06/03 A3005 RMK A01 T00640032  RH  081%=      5-min Rain = 0
KPAD 211530Z 00014KT 07/03 A3005 RMK A01 T00650032  RH  081%=      5-min Rain = 0
KPAD 211535Z 00014G19KT 07/03 A3005 RMK A01 T00670033  RH  081%=      5-min Rain = 0
KPAD 211540Z 00014G20KT 07/03 A3005 RMK A01 T00670033  RH  080%=      5-min Rain = 0
KPAD 211545Z 00014G21KT 07/03 A3006 RMK A01 T00670033  RH  080%=      5-min Rain = 0
KPAD 211550Z 00016G21KT 07/03 A3006 RMK A01 T00660032  RH  080%=      5-min Rain = 0
KPAD 211555Z 01016KT 07/03 A3005 RMK A01 T00650031  RH  080%=      5-min Rain = 0
KPAD 211600Z 01014G19KT 07/03 A3004 RMK A01 T00670033  RH  080%=      5-min Rain = 0
KPAD 211605Z 01017G24KT 07/03 A3004 RMK A01 T00670030  RH  079%=      5-min Rain = 0
KPAD 211610Z 01016G21KT 07/03 A3004 RMK A01 T00650030  RH  079%=      5-min Rain = 0
KPAD 211615Z 01015G20KT 06/03 A3004 RMK A01 T00630030  RH  081%=      5-min Rain = 0
KPAD 211620Z 00016KT 06/03 A3005 RMK A01 T00610030  RH  082%=      5-min Rain = 0
KPAD 211625Z 01014G20KT 06/03 A3005 RMK A01 T00620031  RH  082%=      5-min Rain = 0
KPAD 211630Z 01017KT 06/03 A3005 RMK A01 T00630030  RH  081%=      5-min Rain = 0
KPAD 211635Z 01017KT 06/03 A3005 RMK A01 T00630031  RH  081%=      5-min Rain = 0
KPAD 211640Z 01015G20KT 06/03 A3005 RMK A01 T00630031  RH  082%=      5-min Rain = 0
KPAD 211645Z 01013G19KT 06/03 A3005 RMK A01 T00620033  RH  083%=      5-min Rain = 0
KPAD 211650Z 00014KT 06/03 A3005 RMK A01 T00630034  RH  084%=      5-min Rain = 0
KPAD 211655Z 01013KT 06/03 A3004 RMK A01 T00630034  RH  083%=      5-min Rain = 0
KPAD 211700Z 00012KT 07/03 A3004 RMK A01 T00650034  RH  082%=      5-min Rain = 0
KPAD 211705Z 00012KT 07/04 A3004 RMK A01 T00680035  RH  081%=      5-min Rain = 0
KPAD 211710Z 00012G18KT 07/04 A3004 RMK A01 T00690035  RH  081%=      5-min Rain = 0
KPAD 211715Z 35015KT 07/03 A3003 RMK A01 T00680033  RH  080%=      5-min Rain = 0
KPAD 211720Z 00014G19KT 07/03 A3003 RMK A01 T00680033  RH  080%=      5-min Rain = 0
KPAD 211725Z 00015KT 07/03 A3003 RMK A01 T00680032  RH  079%=      5-min Rain = 0
KPAD 211730Z 01016KT 07/03 A3003 RMK A01 T00670031  RH  079%=      5-min Rain = 0
KPAD 211735Z 00014KT 07/03 A3003 RMK A01 T00670033  RH  080%=      5-min Rain = 0
KPAD 211740Z 36015KT 07/03 A3003 RMK A01 T00680033  RH  080%=      5-min Rain = 0
KPAD 211745Z 01015KT 07/03 A3002 RMK A01 T00690034  RH  080%=      5-min Rain = 0
KPAD 211750Z 00015KT 07/03 A3002 RMK A01 T00710034  RH  079%=      5-min Rain = 0
KPAD 211755Z 35016G21KT 07/03 A3002 RMK A01 T00720033  RH  078%=      5-min Rain = 0
KPAD 211800Z 36012G18KT 07/03 A3002 RMK A01 T00720034  RH  078%=      5-min Rain = 0
KPAD 211805Z 00014KT 07/03 A3002 RMK A01 T00730033  RH  077%=      5-min Rain = 0
KPAD 211810Z 00014G19KT 07/03 A3002 RMK A01 T00730034  RH  077%=      5-min Rain = 0
KPAD 211815Z 00015KT 07/03 A3001 RMK A01 T00740034  RH  077%=      5-min Rain = 0
KPAD 211820Z 01012KT 07/04 A3001 RMK A01 T00740035  RH  077%=      5-min Rain = 0
KPAD 211825Z 36015KT 08/03 A3001 RMK A01 T00760034  RH  076%=      5-min Rain = 0
KPAD 211830Z 01016KT 08/03 A3001 RMK A01 T00760034  RH  076%=      5-min Rain = 0
KPAD 211835Z 01014KT 08/04 A30 RMK A01 T00770035  RH  076%=      5-min Rain = 0
KPAD 211840Z 01013G18KT 08/04 A30 RMK A01 T00780035  RH  076%=      5-min Rain = 0
KPAD 211845Z 35015G21KT 08/04 A30 RMK A01 T00780035  RH  075%=      5-min Rain = 0
KPAD 211850Z 36013KT 08/04 A30 RMK A01 T00780035  RH  075%=      5-min Rain = 0
KPAD 211855Z 01013G18KT 08/04 A2999 RMK A01 T00790035  RH  075%=      5-min Rain = 0
KPAD 211900Z 01012KT 08/04 A2999 RMK A01 T00810036  RH  074%=      5-min Rain = 0
KPAD 211905Z 01013KT 08/04 A2999 RMK A01 T00820036  RH  074%=      5-min Rain = 0
KPAD 211910Z 01014KT 09/04 A2998 RMK A01 T00850040  RH  074%=      5-min Rain = 0
KPAD 211915Z 00013KT 09/04 A2998 RMK A01 T00900039  RH  072%=      5-min Rain = 0
KPAD 211920Z 00014KT 09/04 A2998 RMK A01 T00890038  RH  072%=      5-min Rain = 0
KPAD 211925Z 00013KT 09/04 A2997 RMK A01 T00880037  RH  071%=      5-min Rain = 0
KPAD 211930Z 00014G19KT 09/04 A2997 RMK A01 T00880036  RH  071%=      5-min Rain = 0
KPAD 211935Z 36014KT 09/04 A2997 RMK A01 T00890036  RH  071%=      5-min Rain = 0
KPAD 211940Z 01014KT 09/04 A2998 RMK A01 T00880036  RH  071%=      5-min Rain = 0
KPAD 211945Z 01011KT 09/04 A2998 RMK A01 T00860036  RH  072%=      5-min Rain = 0
KPAD 211950Z 01013KT 09/04 A2997 RMK A01 T00870035  RH  071%=      5-min Rain = 0
KPAD 211955Z 01012G17KT 09/04 A2997 RMK A01 T00860035  RH  071%=      5-min Rain = 0
KPAD 212000Z 00011G16KT 09/04 A2997 RMK A01 T00870036  RH  071%=      5-min Rain = 0
KPAD 212005Z 00013KT 09/03 A2997 RMK A01 T00870034  RH  071%=      5-min Rain = 0
KPAD 212010Z 01013KT 09/03 A2997 RMK A01 T00860034  RH  071%=      5-min Rain = 0
KPAD 212015Z 00011KT 09/03 A2997 RMK A01 T00850033  RH  071%=      5-min Rain = 0
KPAD 212020Z 01012KT 09/03 A2998 RMK A01 T00850033  RH  071%=      5-min Rain = 0
KPAD 212025Z 01012KT 08/03 A2997 RMK A01 T00840034  RH  072%=      5-min Rain = 0
KPAD 212030Z 01011KT 08/03 A2997 RMK A01 T00840034  RH  072%=      5-min Rain = 0
KPAD 212035Z 02011KT 09/04 A2996 RMK A01 T00850035  RH  072%=      5-min Rain = 0
KPAD 212040Z 02013KT 09/04 A2996 RMK A01 T00870035  RH  072%=      5-min Rain = 0
KPAD 212045Z 01013KT 09/04 A2996 RMK A01 T00850035  RH  072%=      5-min Rain = 0
KPAD 212050Z 01013KT 08/04 A2997 RMK A01 T00840035  RH  073%=      5-min Rain = 0
KPAD 212055Z 01011KT 08/04 A2997 RMK A01 T00840036  RH  073%=      5-min Rain = 0
KPAD 212100Z 01010KT 08/04 A2997 RMK A01 T00830036  RH  074%=      5-min Rain = 0
KPAD 212105Z 01010G15KT 08/04 A2997 RMK A01 T00830036  RH  074%=      5-min Rain = 0
KPAD 212110Z 00012KT 08/04 A2998 RMK A01 T00840037  RH  073%=      5-min Rain = 0
KPAD 212115Z 02011KT 08/04 A2998 RMK A01 T00830036  RH  074%=      5-min Rain = 0
KPAD 212120Z 02011KT 08/04 A2998 RMK A01 T00830036  RH  074%=      5-min Rain = 0
KPAD 212125Z 03011KT 08/04 A2998 RMK A01 T00820036  RH  074%=      5-min Rain = 0
KPAD 212130Z 02010KT 08/04 A2998 RMK A01 T00820036  RH  074%=      5-min Rain = 0
KPAD 212135Z 02010KT 08/04 A2999 RMK A01 T00830036  RH  074%=      5-min Rain = 0
KPAD 212140Z 01010KT 08/04 A2999 RMK A01 T00830036  RH  074%=      5-min Rain = 0
KPAD 212145Z 00009G14KT 08/04 A2999 RMK A01 T00830036  RH  074%=      5-min Rain = 0
KPAD 212150Z 00010KT 08/04 A2998 RMK A01 T00830035  RH  073%=      5-min Rain = 0
KPAD 212155Z 00012KT 08/04 A2998 RMK A01 T00820035  RH  074%=      5-min Rain = 0
KPAD 212200Z 36012KT 08/04 A2998 RMK A01 T00810035  RH  074%=      5-min Rain = 0
KPAD 212205Z 36012KT 08/04 A2998 RMK A01 T00810036  RH  075%=      5-min Rain = 0
KPAD 212210Z 00012KT 08/04 A2998 RMK A01 T00800036  RH  075%=      5-min Rain = 0
KPAD 212215Z 01012KT 08/04 A2999 RMK A01 T00790036  RH  076%=      5-min Rain = 0
KPAD 212220Z 01012KT 08/04 A2999 RMK A01 T00790037  RH  076%=      5-min Rain = 0
KPAD 212225Z 00012KT 08/04 A2999 RMK A01 T00790038  RH  077%=      5-min Rain = 0
KPAD 212230Z 00009KT 08/04 A2999 RMK A01 T00790038  RH  077%=      5-min Rain = 0
KPAD 212235Z 36011KT 08/04 A30 RMK A01 T00770037  RH  077%=      5-min Rain = 0
KPAD 212240Z 01011KT 08/04 A2999 RMK A01 T00760037  RH  078%=      5-min Rain = 0
KPAD 212245Z 01011KT 08/04 A2999 RMK A01 T00760037  RH  078%=      5-min Rain = 0
KPAD 212250Z 01011KT 08/04 A2999 RMK A01 T00750037  RH  078%=      5-min Rain = 0
KPAD 212255Z 01010KT 08/04 A2999 RMK A01 T00750037  RH  079%=      5-min Rain = 0
KPAD 212300Z 03009KT 08/04 A2998 RMK A01 T00750038  RH  079%=      5-min Rain = 0
KPAD 212305Z 04010KT 08/04 A2998 RMK A01 T00750039  RH  079%=      5-min Rain = 0
KPAD 212310Z 03011KT 08/04 A2998 RMK A01 T00750039  RH  079%=      5-min Rain = 0
KPAD 212315Z 03013KT 07/04 A2998 RMK A01 T00740037  RH  079%=      5-min Rain = 0
KPAD 212320Z 03013KT 07/04 A2998 RMK A01 T00730036  RH  079%=      5-min Rain = 0
KPAD 212325Z 02012G17KT 07/04 A2999 RMK A01 T00730035  RH  079%=      5-min Rain = 0
KPAD 212330Z 02012KT 07/04 A2999 RMK A01 T00720035  RH  079%=      5-min Rain = 0
KPAD 212335Z 03014G19KT 07/04 A30 RMK A01 T00710035  RH  079%=      5-min Rain = 0
KPAD 212340Z 03015KT 07/03 A3001 RMK A01 T00710034  RH  079%=      5-min Rain = 0
KPAD 212345Z 03015KT 07/04 A3001 RMK A01 T00700035  RH  080%=      5-min Rain = 0
KPAD 212350Z 03013G19KT 07/04 A3001 RMK A01 T00700035  RH  080%=      5-min Rain = 0
KPAD 212355Z 03014KT 07/04 A3001 RMK A01 T00700036  RH  080%=      5-min Rain = 0
KPAD 220000Z 03013KT 07/04 A3001 RMK A01 T00700036  RH  081%=      5-min Rain = 0
KPAD 220005Z 02012G17KT 07/04 A3001 RMK A01 T00700036  RH  080%=      5-min Rain = 0
KPAD 220010Z 03012KT 07/04 A3001 RMK A01 T00700036  RH  080%=      5-min Rain = 0
KPAD 220015Z 02011KT 07/04 A3001 RMK A01 T00700036  RH  081%=      5-min Rain = 0
KPAD 220020Z 03013KT 07/04 A3001 RMK A01 T00690037  RH  081%=      5-min Rain = 0
KPAD 220025Z 04014KT 07/04 A3001 RMK A01 T00690037  RH  082%=      5-min Rain = 0
KPAD 220030Z 04013G18KT 07/04 A3001 RMK A01 T00690037  RH  082%=      5-min Rain = 0
KPAD 220035Z 03012G17KT 07/04 A3002 RMK A01 T00690036  RH  081%=      5-min Rain = 0
KPAD 220040Z 03014G20KT 07/04 A3002 RMK A01 T00680036  RH  082%=      5-min Rain = 0
KPAD 220045Z 03015KT 07/04 A3002 RMK A01 T00670036  RH  082%=      5-min Rain = 0
KPAD 220050Z 03015G20KT 07/04 A3003 RMK A01 T00670036  RH  082%=      5-min Rain = 0
KPAD 220055Z 04014G19KT 07/04 A3003 RMK A01 T00660037  RH  083%=      5-min Rain = 0
KPAD 220100Z 03015G20KT 07/04 A3003 RMK A01 T00660037  RH  083%=      5-min Rain = 0
KPAD 220105Z 03015KT 07/04 A3004 RMK A01 T00660037  RH  083%=      5-min Rain = 0
KPAD 220110Z 03014KT 07/04 A3004 RMK A01 T00660037  RH  083%=      5-min Rain = 0
KPAD 220115Z 04011KT 07/04 A3004 RMK A01 T00660037  RH  083%=      5-min Rain = 0
KPAD 220120Z 04011KT 07/04 A3005 RMK A01 T00670037  RH  083%=      5-min Rain = 0
KPAD 220125Z 04011KT 07/04 A3005 RMK A01 T00670037  RH  082%=      5-min Rain = 0
KPAD 220130Z 03011KT 07/04 A3006 RMK A01 T00670036  RH  083%=      5-min Rain = 0
KPAD 220135Z 03012G17KT 07/04 A3006 RMK A01 T00660037  RH  083%=      5-min Rain = 0
KPAD 220140Z 03012KT 07/04 A3006 RMK A01 T00660037  RH  083%=      5-min Rain = 0
KPAD 220145Z 02013G18KT 07/04 A3006 RMK A01 T00650037  RH  084%=      5-min Rain = 0
KPAD 220150Z 03012KT 07/04 A3006 RMK A01 T00650037  RH  084%=      5-min Rain = 0
KPAD 220155Z 03014G21KT 06/04 A3006 RMK A01 T00630037  RH  085%=      5-min Rain = 0
KPAD 220200Z 03014KT 06/04 A3006 RMK A01 T00630037  RH  085%=      5-min Rain = 0
KPAD 220205Z 03014KT 06/04 A3006 RMK A01 T00630038  RH  086%=      5-min Rain = 0
KPAD 220210Z 03013G19KT 06/04 A3006 RMK A01 T00630038  RH  086%=      5-min Rain = 0
KPAD 220215Z 03011KT 06/04 A3006 RMK A01 T00630038  RH  086%=      5-min Rain = 0
KPAD 220220Z 03012G17KT 06/04 A3007 RMK A01 T00630038  RH  086%=      5-min Rain = 0
KPAD 220225Z 03011KT 06/04 A3007 RMK A01 T00630038  RH  086%=      5-min Rain = 0
KPAD 220230Z 03011G18KT 06/04 A3007 RMK A01 T00630038  RH  086%=      5-min Rain = 0
KPAD 220235Z 03012KT 06/04 A3007 RMK A01 T00630037  RH  085%=      5-min Rain = 0
KPAD 220240Z 03013KT 06/04 A3007 RMK A01 T00620037  RH  085%=      5-min Rain = 0
KPAD 220245Z 02014KT 06/04 A3007 RMK A01 T00620037  RH  085%=      5-min Rain = 0
KPAD 220250Z 03014G19KT 06/04 A3007 RMK A01 T00610037  RH  086%=      5-min Rain = 0
KPAD 220255Z 03012KT 06/04 A3007 RMK A01 T00610037  RH  086%=      5-min Rain = 0
KPAD 220300Z 03014KT 06/04 A3007 RMK A01 T00600037  RH  086%=      5-min Rain = 0
KPAD 220305Z 02014G19KT 06/04 A3007 RMK A01 T00600036  RH  086%=      5-min Rain = 0
KPAD 220310Z 02012KT 06/04 A3007 RMK A01 T00600036  RH  087%=      5-min Rain = 0
KPAD 220315Z 02011KT 06/04 A3007 RMK A01 T00600037  RH  087%=      5-min Rain = 0
KPAD 220320Z 02012KT 06/04 A3007 RMK A01 T00600037  RH  087%=      5-min Rain = 0
KPAD 220325Z 03013KT 06/04 A3006 RMK A01 T00600037  RH  087%=      5-min Rain = 0
KPAD 220330Z 03012KT 06/04 A3007 RMK A01 T00600037  RH  087%=      5-min Rain = 0
KPAD 220335Z 02011KT 06/04 A3007 RMK A01 T00580038  RH  089%=      5-min Rain = 0
KPAD 220340Z 02011KT 06/04 A3007 RMK A01 T00570039  RH  090%=      5-min Rain = 0
KPAD 220345Z 00013KT 06/04 A3009 RMK A01 T00570039  RH  090%=      5-min Rain = 0
KPAD 220350Z 35014KT 06/04 A3011 RMK A01 T00570040  RH  091%=      5-min Rain = 0
KPAD 220355Z 34013KT 06/04 A3012 RMK A01 T00570040  RH  091%=      5-min Rain = 0
KPAD 220400Z 33012G17KT 06/04 A3013 RMK A01 T00570042  RH  092%=      5-min Rain = 0
KPAD 220405Z 32011G16KT 06/04 A3014 RMK A01 T00570042  RH  092%=      5-min Rain = 0.03
KPAD 220410Z 34011KT 06/04 A3013 RMK A01 T00560041  RH  092%=      5-min Rain = 0.02
KPAD 220415Z 00011KT 05/04 A3011 RMK A01 T00540041  RH  093%=      5-min Rain = 0.02
KPAD 220420Z 01012KT 05/04 A3009 RMK A01 T00540041  RH  093%=      5-min Rain = 0
KPAD 220425Z 35012KT 05/04 A301 RMK A01 T00530041  RH  094%=      5-min Rain = 0
KPAD 220430Z 36013G18KT 05/04 A3011 RMK A01 T00530042  RH  094%=      5-min Rain = 0
KPAD 220435Z 36009KT 05/04 A3011 RMK A01 T00530042  RH  095%=      5-min Rain = 0
KPAD 220440Z 00010KT 05/04 A3011 RMK A01 T00530042  RH  095%=      5-min Rain = 0
KPAD 220445Z 00012KT 05/04 A3009 RMK A01 T00530043  RH  095%=      5-min Rain = 0
KPAD 220450Z 36012KT 05/04 A3009 RMK A01 T00530043  RH  095%=      5-min Rain = 0
KPAD 220455Z 36013KT 05/04 A3009 RMK A01 T00530043  RH  096%=      5-min Rain = 0
KPAD 220500Z 00013KT 05/04 A3009 RMK A01 T00520043  RH  096%=      5-min Rain = 0
KPAD 220505Z 00015G22KT 05/04 A301 RMK A01 T00520043  RH  096%=      5-min Rain = 0
KPAD 220510Z 00016G21KT 05/04 A3011 RMK A01 T00520042  RH  096%=      5-min Rain = 0
KPAD 220515Z 36013G19KT 05/04 A3012 RMK A01 T00520043  RH  096%=      5-min Rain = 0
KPAD 220520Z 36012KT 05/04 A3012 RMK A01 T00520043  RH  096%=      5-min Rain = 0
KPAD 220525Z 35009G15KT 05/04 A3012 RMK A01 T00520043  RH  096%=      5-min Rain = 0
KPAD 220530Z 35010KT 05/04 A3012 RMK A01 T00520043  RH  096%=      5-min Rain = 0
KPAD 220535Z 36010KT 05/04 A3011 RMK A01 T00520044  RH  096%=      5-min Rain = 0
KPAD 220540Z 00010KT 05/04 A3011 RMK A01 T00520044  RH  096%=      5-min Rain = 0
KPAD 220545Z 01010KT 05/04 A3011 RMK A01 T00520043  RH  096%=      5-min Rain = 0
KPAD 220550Z 01008KT 05/04 A3012 RMK A01 T00510043  RH  097%=      5-min Rain = 0
KPAD 220555Z 01008KT 05/04 A3013 RMK A01 T00510043  RH  097%=      5-min Rain = 0

Page generated in 0.01 seconds.